sensor_id;sensor_type;location;lat;lon;timestamp;pressure;altitude;pressure_sealevel;temperature;humidity
62126;BME280;48112;53.282;6.150;2022-08-19T00:00:18;101491.66;;;18.31;72.71
62126;BME280;48112;53.282;6.150;2022-08-19T00:01:21;101485.78;;;18.29;72.46
62126;BME280;48112;53.282;6.150;2022-08-19T00:02:31;101485.34;;;18.23;72.72
62126;BME280;48112;53.282;6.150;2022-08-19T00:03:33;101484.94;;;18.21;72.72
62126;BME280;48112;53.282;6.150;2022-08-19T00:04:37;101479.47;;;18.21;72.72
62126;BME280;48112;53.282;6.150;2022-08-19T00:05:39;101479.03;;;18.19;72.86
62126;BME280;48112;53.282;6.150;2022-08-19T00:06:45;101485.72;;;18.22;72.84
62126;BME280;48112;53.282;6.150;2022-08-19T00:07:47;101477.53;;;18.25;72.72
62126;BME280;48112;53.282;6.150;2022-08-19T00:08:51;101475.56;;;18.22;72.63
62126;BME280;48112;53.282;6.150;2022-08-19T00:09:53;101468.56;;;18.25;72.90
62126;BME280;48112;53.282;6.150;2022-08-19T00:10:58;101474.78;;;18.25;72.87
62126;BME280;48112;53.282;6.150;2022-08-19T00:12:00;101473.28;;;18.28;72.37
62126;BME280;48112;53.282;6.150;2022-08-19T00:13:03;101481.44;;;18.24;72.62
62126;BME280;48112;53.282;6.150;2022-08-19T00:14:07;101478.75;;;18.28;72.22
62126;BME280;48112;53.282;6.150;2022-08-19T00:15:13;101477.94;;;18.27;72.30
62126;BME280;48112;53.282;6.150;2022-08-19T00:16:15;101479.50;;;18.25;72.86
62126;BME280;48112;53.282;6.150;2022-08-19T00:17:26;101476.34;;;18.23;72.87
62126;BME280;48112;53.282;6.150;2022-08-19T00:18:28;101472.06;;;18.22;72.80
62126;BME280;48112;53.282;6.150;2022-08-19T00:19:31;101472.06;;;18.25;72.83
62126;BME280;48112;53.282;6.150;2022-08-19T00:20:35;101483.84;;;18.29;72.30
62126;BME280;48112;53.282;6.150;2022-08-19T00:21:41;101483.41;;;18.27;72.46
62126;BME280;48112;53.282;6.150;2022-08-19T00:22:45;101475.22;;;18.27;72.73
62126;BME280;48112;53.282;6.150;2022-08-19T00:23:48;101474.41;;;18.27;72.60
62126;BME280;48112;53.282;6.150;2022-08-19T00:24:50;101472.84;;;18.26;72.58
62126;BME280;48112;53.282;6.150;2022-08-19T00:25:55;101471.72;;;18.30;72.44
62126;BME280;48112;53.282;6.150;2022-08-19T00:26:57;101461.53;;;18.27;72.44
62126;BME280;48112;53.282;6.150;2022-08-19T00:28:20;101474.78;;;18.25;72.01
62126;BME280;48112;53.282;6.150;2022-08-19T00:29:24;101467.78;;;18.24;72.62
62126;BME280;48112;53.282;6.150;2022-08-19T00:30:26;101465.00;;;18.21;72.79
62126;BME280;48112;53.282;6.150;2022-08-19T00:31:29;101459.16;;;18.22;72.91
62126;BME280;48112;53.282;6.150;2022-08-19T00:32:32;101461.50;;;18.20;72.86
62126;BME280;48112;53.282;6.150;2022-08-19T00:33:36;101460.31;;;18.21;72.85
62126;BME280;48112;53.282;6.150;2022-08-19T00:34:38;101467.34;;;18.22;72.56
62126;BME280;48112;53.282;6.150;2022-08-19T00:35:42;101468.16;;;18.23;72.78
62126;BME280;48112;53.282;6.150;2022-08-19T00:36:45;101466.22;;;18.23;72.41
62126;BME280;48112;53.282;6.150;2022-08-19T00:37:48;101459.09;;;18.15;73.03
62126;BME280;48112;53.282;6.150;2022-08-19T00:38:50;101463.81;;;18.18;72.76
62126;BME280;48112;53.282;6.150;2022-08-19T00:39:54;101467.31;;;18.15;72.89
62126;BME280;48112;53.282;6.150;2022-08-19T00:40:57;101466.09;;;18.13;73.06
62126;BME280;48112;53.282;6.150;2022-08-19T00:42:00;101458.28;;;18.11;73.50
62126;BME280;48112;53.282;6.150;2022-08-19T00:43:08;101451.25;;;18.10;73.31
62126;BME280;48112;53.282;6.150;2022-08-19T00:44:14;101453.97;;;18.10;73.41
62126;BME280;48112;53.282;6.150;2022-08-19T00:45:18;101445.03;;;18.13;72.98
62126;BME280;48112;53.282;6.150;2022-08-19T00:46:22;101448.94;;;18.12;73.33
62126;BME280;48112;53.282;6.150;2022-08-19T00:47:24;101448.16;;;18.15;72.78
62126;BME280;48112;53.282;6.150;2022-08-19T00:48:28;101456.75;;;18.14;73.32
62126;BME280;48112;53.282;6.150;2022-08-19T00:49:33;101453.63;;;18.15;73.29
62126;BME280;48112;53.282;6.150;2022-08-19T00:50:39;101448.16;;;18.15;72.92
62126;BME280;48112;53.282;6.150;2022-08-19T00:51:58;101449.31;;;18.11;73.23
62126;BME280;48112;53.282;6.150;2022-08-19T00:53:03;101448.09;;;18.08;73.27
62126;BME280;48112;53.282;6.150;2022-08-19T00:54:05;101445.78;;;18.10;73.35
62126;BME280;48112;53.282;6.150;2022-08-19T00:55:08;101444.59;;;18.11;72.90
62126;BME280;48112;53.282;6.150;2022-08-19T00:56:13;101439.91;;;18.08;73.49
62126;BME280;48112;53.282;6.150;2022-08-19T00:57:18;101439.09;;;18.08;73.29
62126;BME280;48112;53.282;6.150;2022-08-19T00:58:27;101432.44;;;18.05;73.44
62126;BME280;48112;53.282;6.150;2022-08-19T00:59:34;101439.09;;;18.04;73.40
62126;BME280;48112;53.282;6.150;2022-08-19T01:00:57;101434.72;;;17.96;73.73
62126;BME280;48112;53.282;6.150;2022-08-19T01:02:00;101437.44;;;17.96;73.92
62126;BME280;48112;53.282;6.150;2022-08-19T01:03:02;101431.16;;;17.92;73.75
62126;BME280;48112;53.282;6.150;2022-08-19T01:04:06;101441.69;;;17.90;73.84
62126;BME280;48112;53.282;6.150;2022-08-19T01:05:10;101434.63;;;17.89;73.95
62126;BME280;48112;53.282;6.150;2022-08-19T01:06:14;101433.44;;;17.86;74.36
62126;BME280;48112;53.282;6.150;2022-08-19T01:07:22;101434.22;;;17.87;74.00
62126;BME280;48112;53.282;6.150;2022-08-19T01:08:26;101436.19;;;17.86;nan
62126;BME280;48112;53.282;6.150;2022-08-19T01:09:28;101437.69;;;17.84;74.27
62126;BME280;48112;53.282;6.150;2022-08-19T01:10:33;101429.50;;;17.84;73.96
62126;BME280;48112;53.282;6.150;2022-08-19T01:11:40;101432.97;;;17.81;74.20
62126;BME280;48112;53.282;6.150;2022-08-19T01:12:46;101427.03;;;17.72;74.97
62126;BME280;48112;53.282;6.150;2022-08-19T01:13:49;101433.69;;;17.71;74.92
62126;BME280;48112;53.282;6.150;2022-08-19T01:14:53;101424.31;;;17.72;74.96
62126;BME280;48112;53.282;6.150;2022-08-19T01:15:58;101425.88;;;17.73;74.85
62126;BME280;48112;53.282;6.150;2022-08-19T01:17:03;101425.88;;;17.73;75.08
62126;BME280;48112;53.282;6.150;2022-08-19T01:18:07;101425.13;;;17.76;74.83
62126;BME280;48112;53.282;6.150;2022-08-19T01:19:16;101433.72;;;17.78;74.58
62126;BME280;48112;53.282;6.150;2022-08-19T01:20:22;101423.56;;;17.75;74.65
62126;BME280;48112;53.282;6.150;2022-08-19T01:21:30;101428.59;;;17.69;74.99
62126;BME280;48112;53.282;6.150;2022-08-19T01:22:37;101418.75;;;17.65;75.13
62126;BME280;48112;53.282;6.150;2022-08-19T01:23:44;101426.94;;;17.61;75.58
62126;BME280;48112;53.282;6.150;2022-08-19T01:24:47;101429.66;;;17.61;75.60
62126;BME280;48112;53.282;6.150;2022-08-19T01:25:52;101421.09;;;17.63;75.17
62126;BME280;48112;53.282;6.150;2022-08-19T01:26:56;101424.22;;;17.61;75.66
62126;BME280;48112;53.282;6.150;2022-08-19T01:27:59;101424.97;;;17.62;75.47
62126;BME280;48112;53.282;6.150;2022-08-19T01:29:12;101433.53;;;17.60;75.52
62126;BME280;48112;53.282;6.150;2022-08-19T01:30:19;101425.75;;;17.62;75.43
62126;BME280;48112;53.282;6.150;2022-08-19T01:31:27;101424.97;;;17.62;75.15
62126;BME280;48112;53.282;6.150;2022-08-19T01:32:33;101428.88;;;17.61;75.53
62126;BME280;48112;53.282;6.150;2022-08-19T01:33:36;101433.59;;;17.64;75.60
62126;BME280;48112;53.282;6.150;2022-08-19T01:34:39;101432.41;;;17.65;75.54
62126;BME280;48112;53.282;6.150;2022-08-19T01:35:41;101439.84;;;17.68;75.29
62126;BME280;48112;53.282;6.150;2022-08-19T01:36:46;101437.53;;;17.70;75.45
62126;BME280;48112;53.282;6.150;2022-08-19T01:37:52;101440.69;;;17.72;74.92
62126;BME280;48112;53.282;6.150;2022-08-19T01:38:56;101436.78;;;17.73;74.79
62126;BME280;48112;53.282;6.150;2022-08-19T01:39:59;101433.25;;;17.69;75.29
62126;BME280;48112;53.282;6.150;2022-08-19T01:41:07;101441.41;;;17.65;75.22
62126;BME280;48112;53.282;6.150;2022-08-19T01:42:11;101438.63;;;17.62;75.23
62126;BME280;48112;53.282;6.150;2022-08-19T01:43:14;101440.59;;;17.61;75.24
62126;BME280;48112;53.282;6.150;2022-08-19T01:44:16;101437.44;;;17.59;75.41
62126;BME280;48112;53.282;6.150;2022-08-19T01:45:23;101440.97;;;17.60;74.95
62126;BME280;48112;53.282;6.150;2022-08-19T01:46:26;101446.00;;;17.58;75.32
62126;BME280;48112;53.282;6.150;2022-08-19T01:47:30;101447.56;;;17.59;75.13
62126;BME280;48112;53.282;6.150;2022-08-19T01:48:36;101445.25;;;17.61;74.81
62126;BME280;48112;53.282;6.150;2022-08-19T01:49:40;101444.84;;;17.59;75.17
62126;BME280;48112;53.282;6.150;2022-08-19T01:50:43;101431.97;;;17.59;74.79
62126;BME280;48112;53.282;6.150;2022-08-19T01:51:45;101439.75;;;17.57;74.78
62126;BME280;48112;53.282;6.150;2022-08-19T01:52:50;101435.84;;;17.55;74.91
62126;BME280;48112;53.282;6.150;2022-08-19T01:54:08;101447.41;;;17.45;74.99
62126;BME280;48112;53.282;6.150;2022-08-19T01:55:13;101439.56;;;17.43;75.44
62126;BME280;48112;53.282;6.150;2022-08-19T01:56:16;101434.09;;;17.43;75.33
62126;BME280;48112;53.282;6.150;2022-08-19T01:57:19;101427.06;;;17.42;75.49
62126;BME280;48112;53.282;6.150;2022-08-19T01:58:24;101430.56;;;17.43;75.64
62126;BME280;48112;53.282;6.150;2022-08-19T01:59:31;101430.91;;;17.38;75.84
62126;BME280;48112;53.282;6.150;2022-08-19T02:00:34;101428.97;;;17.38;76.03
62126;BME280;48112;53.282;6.150;2022-08-19T02:01:37;101436.34;;;17.38;75.81
62126;BME280;48112;53.282;6.150;2022-08-19T02:02:39;101420.72;;;17.35;76.44
62126;BME280;48112;53.282;6.150;2022-08-19T02:03:45;101434.00;;;17.36;76.26
62126;BME280;48112;53.282;6.150;2022-08-19T02:04:47;101427.34;;;17.34;76.34
62126;BME280;48112;53.282;6.150;2022-08-19T02:05:54;101430.50;;;17.36;76.08
62126;BME280;48112;53.282;6.150;2022-08-19T02:06:57;101429.28;;;17.33;76.31
62126;BME280;48112;53.282;6.150;2022-08-19T02:08:02;101431.25;;;17.33;76.17
62126;BME280;48112;53.282;6.150;2022-08-19T02:09:07;101434.72;;;17.30;76.46
62126;BME280;48112;53.282;6.150;2022-08-19T02:10:14;101434.72;;;17.30;76.44
62126;BME280;48112;53.282;6.150;2022-08-19T02:11:19;101433.94;;;17.29;76.39
62126;BME280;48112;53.282;6.150;2022-08-19T02:12:23;101433.94;;;17.29;76.53
62126;BME280;48112;53.282;6.150;2022-08-19T02:13:25;101435.47;;;17.30;76.43
62126;BME280;48112;53.282;6.150;2022-08-19T02:14:28;101425.75;;;17.29;76.30
62126;BME280;48112;53.282;6.150;2022-08-19T02:15:30;101432.38;;;17.32;76.40
62126;BME280;48112;53.282;6.150;2022-08-19T02:16:34;101427.72;;;17.32;76.33
62126;BME280;48112;53.282;6.150;2022-08-19T02:17:36;101423.06;;;17.33;76.08
62126;BME280;48112;53.282;6.150;2022-08-19T02:18:39;101430.44;;;17.32;76.13
62126;BME280;48112;53.282;6.150;2022-08-19T02:19:41;101431.25;;;17.33;76.07
62126;BME280;48112;53.282;6.150;2022-08-19T02:20:44;101426.97;;;17.35;76.17
62126;BME280;48112;53.282;6.150;2022-08-19T02:21:48;101438.69;;;17.36;75.68
62126;BME280;48112;53.282;6.150;2022-08-19T02:22:51;101434.75;;;17.33;75.82
62126;BME280;48112;53.282;6.150;2022-08-19T02:23:56;101435.97;;;17.36;75.79
62126;BME280;48112;53.282;6.150;2022-08-19T02:24:59;101429.97;;;17.27;76.38
62126;BME280;48112;53.282;6.150;2022-08-19T02:26:01;101440.88;;;17.27;76.23
62126;BME280;48112;53.282;6.150;2022-08-19T02:27:04;101436.59;;;17.26;76.36
62126;BME280;48112;53.282;6.150;2022-08-19T02:28:07;101430.31;;;17.22;76.35
62126;BME280;48112;53.282;6.150;2022-08-19T02:29:10;101432.63;;;17.20;76.45
62126;BME280;48112;53.282;6.150;2022-08-19T02:30:15;101424.72;;;17.11;77.03
62126;BME280;48112;53.282;6.150;2022-08-19T02:31:20;101427.38;;;17.04;77.21
62126;BME280;48112;53.282;6.150;2022-08-19T02:32:26;101427.31;;;17.01;77.55
62126;BME280;48112;53.282;6.150;2022-08-19T02:33:29;101429.63;;;16.99;77.50
62126;BME280;48112;53.282;6.150;2022-08-19T02:34:31;101426.47;;;16.97;77.65
62126;BME280;48112;53.282;6.150;2022-08-19T02:35:34;101416.28;;;16.94;77.87
62126;BME280;48112;53.282;6.150;2022-08-19T02:36:36;101436.53;;;16.93;77.97
62126;BME280;48112;53.282;6.150;2022-08-19T02:37:43;101436.50;;;16.89;77.70
62126;BME280;48112;53.282;6.150;2022-08-19T02:39:05;101443.78;;;16.82;78.16
62126;BME280;48112;53.282;6.150;2022-08-19T02:40:08;101437.09;;;16.76;78.65
62126;BME280;48112;53.282;6.150;2022-08-19T02:41:19;101439.25;;;16.67;78.85
62126;BME280;48112;53.282;6.150;2022-08-19T02:42:27;101438.50;;;16.66;78.89
62126;BME280;48112;53.282;6.150;2022-08-19T02:43:31;101440.78;;;16.64;78.80
62126;BME280;48112;53.282;6.150;2022-08-19T02:44:39;101442.31;;;16.62;79.22
62126;BME280;48112;53.282;6.150;2022-08-19T02:45:40;101446.63;;;16.63;79.70
62126;BME280;48112;53.282;6.150;2022-08-19T02:46:45;101450.91;;;16.64;79.48
62126;BME280;48112;53.282;6.150;2022-08-19T02:47:48;101438.44;;;16.63;79.45
62126;BME280;48112;53.282;6.150;2022-08-19T02:48:52;101439.19;;;16.60;79.72
62126;BME280;48112;53.282;6.150;2022-08-19T02:49:55;101451.63;;;16.61;79.64
62126;BME280;48112;53.282;6.150;2022-08-19T02:50:57;101449.72;;;16.61;79.29
62126;BME280;48112;53.282;6.150;2022-08-19T02:52:01;101444.63;;;16.60;79.83
62126;BME280;48112;53.282;6.150;2022-08-19T02:53:03;101459.38;;;16.59;79.71
62126;BME280;48112;53.282;6.150;2022-08-19T02:54:10;101444.94;;;16.55;80.17
62126;BME280;48112;53.282;6.150;2022-08-19T02:55:12;101446.41;;;16.49;80.14
62126;BME280;48112;53.282;6.150;2022-08-19T02:56:16;101443.69;;;16.49;79.96
62126;BME280;48112;53.282;6.150;2022-08-19T02:57:19;101448.25;;;16.44;80.61
62126;BME280;48112;53.282;6.150;2022-08-19T02:58:22;101450.56;;;16.42;80.87
62126;BME280;48112;53.282;6.150;2022-08-19T02:59:25;101451.00;;;16.44;80.84
62126;BME280;48112;53.282;6.150;2022-08-19T03:00:32;101451.00;;;16.44;80.59
62126;BME280;48112;53.282;6.150;2022-08-19T03:01:35;101453.34;;;16.46;80.15
62126;BME280;48112;53.282;6.150;2022-08-19T03:02:38;101459.97;;;16.45;80.60
62126;BME280;48112;53.282;6.150;2022-08-19T03:03:40;101459.59;;;16.47;80.34
62126;BME280;48112;53.282;6.150;2022-08-19T03:04:43;101458.38;;;16.44;80.47
62126;BME280;48112;53.282;6.150;2022-08-19T03:05:45;101453.66;;;16.41;80.57
62126;BME280;48112;53.282;6.150;2022-08-19T03:06:57;101454.31;;;16.34;80.74
62126;BME280;48112;53.282;6.150;2022-08-19T03:08:12;101452.66;;;16.30;80.89
62126;BME280;48112;53.282;6.150;2022-08-19T03:09:18;101451.88;;;16.29;80.74
62126;BME280;48112;53.282;6.150;2022-08-19T03:10:21;101448.31;;;16.25;81.00
62126;BME280;48112;53.282;6.150;2022-08-19T03:11:26;101447.91;;;16.23;81.09
62126;BME280;48112;53.282;6.150;2022-08-19T03:12:29;101443.13;;;16.17;81.42
62126;BME280;48112;53.282;6.150;2022-08-19T03:13:31;101443.78;;;16.10;81.86
62126;BME280;48112;53.282;6.150;2022-08-19T03:14:36;101444.91;;;16.09;81.58
62126;BME280;48112;53.282;6.150;2022-08-19T03:15:41;101440.63;;;16.08;81.81
62126;BME280;48112;53.282;6.150;2022-08-19T03:16:46;101435.91;;;16.05;81.76
62126;BME280;48112;53.282;6.150;2022-08-19T03:17:49;101441.28;;;16.02;82.21
62126;BME280;48112;53.282;6.150;2022-08-19T03:18:53;101436.63;;;16.02;81.97
62126;BME280;48112;53.282;6.150;2022-08-19T03:19:56;101442.06;;;16.02;81.99
62126;BME280;48112;53.282;6.150;2022-08-19T03:20:58;101436.19;;;16.00;82.30
62126;BME280;48112;53.282;6.150;2022-08-19T03:22:02;101436.63;;;16.02;82.32
62126;BME280;48112;53.282;6.150;2022-08-19T03:23:05;101437.41;;;16.03;81.90
62126;BME280;48112;53.282;6.150;2022-08-19T03:24:08;101438.19;;;16.03;81.65
62126;BME280;48112;53.282;6.150;2022-08-19T03:25:12;101439.78;;;16.04;81.76
62126;BME280;48112;53.282;6.150;2022-08-19T03:26:16;101442.06;;;16.02;81.90
62126;BME280;48112;53.282;6.150;2022-08-19T03:27:18;101440.16;;;16.03;81.79
62126;BME280;48112;53.282;6.150;2022-08-19T03:28:21;101443.63;;;16.03;81.93
62126;BME280;48112;53.282;6.150;2022-08-19T03:29:24;101436.19;;;16.00;81.96
62126;BME280;48112;53.282;6.150;2022-08-19T03:30:31;101437.28;;;15.96;82.14
62126;BME280;48112;53.282;6.150;2022-08-19T03:31:34;101439.66;;;15.97;82.11
62126;BME280;48112;53.282;6.150;2022-08-19T03:32:46;101440.72;;;15.93;82.25
62126;BME280;48112;53.282;6.150;2022-08-19T03:33:54;101428.97;;;15.89;82.54
62126;BME280;48112;53.282;6.150;2022-08-19T03:34:57;101433.22;;;15.86;82.89
62126;BME280;48112;53.282;6.150;2022-08-19T03:36:01;101428.19;;;15.88;82.51
62126;BME280;48112;53.282;6.150;2022-08-19T03:37:06;101422.75;;;15.88;82.49
62126;BME280;48112;53.282;6.150;2022-08-19T03:38:08;101422.03;;;15.91;82.34
62126;BME280;48112;53.282;6.150;2022-08-19T03:39:10;101421.66;;;15.93;82.62
62126;BME280;48112;53.282;6.150;2022-08-19T03:40:15;101420.56;;;15.97;82.31
62126;BME280;48112;53.282;6.150;2022-08-19T03:41:19;101421.00;;;15.99;82.47
62126;BME280;48112;53.282;6.150;2022-08-19T03:42:22;101431.47;;;15.97;82.35
62126;BME280;48112;53.282;6.150;2022-08-19T03:43:47;101426.75;;;15.94;82.52
62126;BME280;48112;53.282;6.150;2022-08-19T03:44:51;101427.91;;;15.93;82.42
62126;BME280;48112;53.282;6.150;2022-08-19T03:46:00;101438.81;;;15.93;82.23
62126;BME280;48112;53.282;6.150;2022-08-19T03:47:05;101432.91;;;15.91;82.15
62126;BME280;48112;53.282;6.150;2022-08-19T03:48:07;101434.06;;;15.90;82.26
62126;BME280;48112;53.282;6.150;2022-08-19T03:49:11;101430.13;;;15.88;82.59
62126;BME280;48112;53.282;6.150;2022-08-19T03:50:15;101426.25;;;15.89;82.57
62126;BME280;48112;53.282;6.150;2022-08-19T03:51:20;101429.34;;;15.87;82.46
62126;BME280;48112;53.282;6.150;2022-08-19T03:52:31;101430.13;;;15.88;82.32
62126;BME280;48112;53.282;6.150;2022-08-19T03:53:34;101434.78;;;15.87;82.43
62126;BME280;48112;53.282;6.150;2022-08-19T03:54:37;101432.78;;;15.84;82.37
62126;BME280;48112;53.282;6.150;2022-08-19T03:55:41;101444.41;;;15.81;82.61
62126;BME280;48112;53.282;6.150;2022-08-19T03:56:44;101440.84;;;15.77;82.70
62126;BME280;48112;53.282;6.150;2022-08-19T03:57:48;101440.41;;;15.75;82.84
62126;BME280;48112;53.282;6.150;2022-08-19T03:58:50;101443.13;;;15.75;82.50
62126;BME280;48112;53.282;6.150;2022-08-19T03:59:54;101447.72;;;15.71;82.64
62126;BME280;48112;53.282;6.150;2022-08-19T04:01:15;101444.50;;;15.66;82.93
62126;BME280;48112;53.282;6.150;2022-08-19T04:02:19;101437.84;;;15.63;83.17
62126;BME280;48112;53.282;6.150;2022-08-19T04:03:21;101434.25;;;15.59;83.47
62126;BME280;48112;53.282;6.150;2022-08-19T04:04:24;101439.69;;;15.59;83.32
62126;BME280;48112;53.282;6.150;2022-08-19T04:05:29;101441.97;;;15.57;83.32
62126;BME280;48112;53.282;6.150;2022-08-19T04:06:35;101428.38;;;15.57;83.53
62126;BME280;48112;53.282;6.150;2022-08-19T04:07:40;101429.09;;;15.54;83.62
62126;BME280;48112;53.282;6.150;2022-08-19T04:08:45;101431.81;;;15.54;83.51
62126;BME280;48112;53.282;6.150;2022-08-19T04:09:48;101438.06;;;15.55;83.58
62126;BME280;48112;53.282;6.150;2022-08-19T04:10:53;101436.84;;;15.52;83.84
62126;BME280;48112;53.282;6.150;2022-08-19T04:11:58;101430.25;;;15.53;83.62
62126;BME280;48112;53.282;6.150;2022-08-19T04:13:01;101434.91;;;15.53;83.99
62126;BME280;48112;53.282;6.150;2022-08-19T04:14:03;101434.53;;;15.54;83.65
62126;BME280;48112;53.282;6.150;2022-08-19T04:15:07;101433.03;;;15.57;83.35
62126;BME280;48112;53.282;6.150;2022-08-19T04:16:10;101433.03;;;15.57;83.59
62126;BME280;48112;53.282;6.150;2022-08-19T04:17:12;101436.53;;;15.57;83.62
62126;BME280;48112;53.282;6.150;2022-08-19T04:18:15;101441.22;;;15.57;83.58
62126;BME280;48112;53.282;6.150;2022-08-19T04:19:18;101440.84;;;15.58;83.52
62126;BME280;48112;53.282;6.150;2022-08-19T04:20:21;101429.53;;;15.56;83.27
62126;BME280;48112;53.282;6.150;2022-08-19T04:21:24;101439.25;;;15.57;83.34
62126;BME280;48112;53.282;6.150;2022-08-19T04:22:27;101433.41;;;15.55;83.79
62126;BME280;48112;53.282;6.150;2022-08-19T04:23:30;101424.09;;;15.56;83.63
62126;BME280;48112;53.282;6.150;2022-08-19T04:24:34;101432.69;;;15.58;83.62
62126;BME280;48112;53.282;6.150;2022-08-19T04:25:38;101424.53;;;15.58;83.78
62126;BME280;48112;53.282;6.150;2022-08-19T04:26:43;101423.72;;;15.58;83.47
62126;BME280;48112;53.282;6.150;2022-08-19T04:27:45;101429.53;;;15.56;83.56
62126;BME280;48112;53.282;6.150;2022-08-19T04:28:49;101426.38;;;15.54;83.79
62126;BME280;48112;53.282;6.150;2022-08-19T04:29:51;101434.91;;;15.53;83.36
62126;BME280;48112;53.282;6.150;2022-08-19T04:30:56;101428.25;;;15.50;83.92
62126;BME280;48112;53.282;6.150;2022-08-19T04:31:59;101427.44;;;15.50;84.10
62126;BME280;48112;53.282;6.150;2022-08-19T04:33:11;101421.94;;;15.46;84.10
62126;BME280;48112;53.282;6.150;2022-08-19T04:34:15;101429.75;;;15.48;84.21
62126;BME280;48112;53.282;6.150;2022-08-19T04:35:19;101428.59;;;15.49;84.20
62126;BME280;48112;53.282;6.150;2022-08-19T04:36:31;101429.81;;;15.51;83.86
62126;BME280;48112;53.282;6.150;2022-08-19T04:37:35;101434.13;;;15.52;83.88
62126;BME280;48112;53.282;6.150;2022-08-19T04:38:36;101439.63;;;15.56;83.74
62126;BME280;48112;53.282;6.150;2022-08-19T04:39:40;101423.28;;;15.56;83.80
62126;BME280;48112;53.282;6.150;2022-08-19T04:41:03;101430.69;;;15.55;83.97
62126;BME280;48112;53.282;6.150;2022-08-19T04:42:25;101423.66;;;15.54;84.03
62126;BME280;48112;53.282;6.150;2022-08-19T04:43:44;101429.88;;;15.55;83.59
62126;BME280;48112;53.282;6.150;2022-08-19T04:44:50;101429.53;;;15.56;83.63
62126;BME280;48112;53.282;6.150;2022-08-19T04:45:52;101426.53;;;15.61;83.43
62126;BME280;48112;53.282;6.150;2022-08-19T04:46:57;101423.44;;;15.63;83.58
62126;BME280;48112;53.282;6.150;2022-08-19T04:48:00;101420.44;;;15.68;83.23
62126;BME280;48112;53.282;6.150;2022-08-19T04:49:23;101424.72;;;15.69;83.34
62126;BME280;48112;53.282;6.150;2022-08-19T04:50:27;101423.63;;;15.73;83.15
62126;BME280;48112;53.282;6.150;2022-08-19T04:51:28;101423.69;;;15.77;83.01
62126;BME280;48112;53.282;6.150;2022-08-19T04:52:32;101422.91;;;15.76;83.12
62126;BME280;48112;53.282;6.150;2022-08-19T04:53:36;101424.50;;;15.77;82.82
62126;BME280;48112;53.282;6.150;2022-08-19T04:54:39;101421.78;;;15.77;82.75
62126;BME280;48112;53.282;6.150;2022-08-19T04:55:42;101426.84;;;15.79;83.14
62126;BME280;48112;53.282;6.150;2022-08-19T04:56:45;101424.91;;;15.79;83.05
62126;BME280;48112;53.282;6.150;2022-08-19T04:57:48;101421.84;;;15.81;83.23
62126;BME280;48112;53.282;6.150;2022-08-19T04:58:53;101409.72;;;15.78;83.33
62126;BME280;48112;53.282;6.150;2022-08-19T04:59:56;101416.72;;;15.79;83.27
62126;BME280;48112;53.282;6.150;2022-08-19T05:00:59;101415.97;;;15.79;83.42
62126;BME280;48112;53.282;6.150;2022-08-19T05:02:02;101414.38;;;15.78;83.43
62126;BME280;48112;53.282;6.150;2022-08-19T05:03:05;101418.63;;;15.75;83.72
62126;BME280;48112;53.282;6.150;2022-08-19T05:04:08;101417.47;;;15.76;83.69
62126;BME280;48112;53.282;6.150;2022-08-19T05:05:10;101425.25;;;15.78;83.74
62126;BME280;48112;53.282;6.150;2022-08-19T05:06:15;101427.63;;;15.79;83.75
62126;BME280;48112;53.282;6.150;2022-08-19T05:07:17;101420.97;;;15.77;83.94
62126;BME280;48112;53.282;6.150;2022-08-19T05:08:21;101419.81;;;15.78;83.95
62126;BME280;48112;53.282;6.150;2022-08-19T05:09:32;101416.63;;;15.72;84.27
62126;BME280;48112;53.282;6.150;2022-08-19T05:10:55;101413.47;;;15.70;84.37
62126;BME280;48112;53.282;6.150;2022-08-19T05:11:58;101420.50;;;15.71;84.41
62126;BME280;48112;53.282;6.150;2022-08-19T05:13:03;101416.53;;;15.69;84.89
62126;BME280;48112;53.282;6.150;2022-08-19T05:14:07;101416.53;;;15.69;84.48
62126;BME280;48112;53.282;6.150;2022-08-19T05:15:09;101415.75;;;15.68;84.78
62126;BME280;48112;53.282;6.150;2022-08-19T05:16:13;101417.34;;;15.69;84.93
62126;BME280;48112;53.282;6.150;2022-08-19T05:17:15;101412.25;;;15.68;84.83
62126;BME280;48112;53.282;6.150;2022-08-19T05:18:38;101410.31;;;15.68;84.82
62126;BME280;48112;53.282;6.150;2022-08-19T05:19:59;101409.63;;;15.71;85.07
62126;BME280;48112;53.282;6.150;2022-08-19T05:21:20;101421.34;;;15.75;85.11
62126;BME280;48112;53.282;6.150;2022-08-19T05:22:42;101423.69;;;15.77;84.98
62126;BME280;48112;53.282;6.150;2022-08-19T05:23:47;101422.19;;;15.79;85.08
62126;BME280;48112;53.282;6.150;2022-08-19T05:24:51;101422.25;;;15.83;85.07
62126;BME280;48112;53.282;6.150;2022-08-19T05:26:13;101426.94;;;15.82;85.36
62126;BME280;48112;53.282;6.150;2022-08-19T05:27:15;101413.00;;;15.87;85.34
62126;BME280;48112;53.282;6.150;2022-08-19T05:28:19;101418.59;;;15.94;85.64
62126;BME280;48112;53.282;6.150;2022-08-19T05:29:24;101413.59;;;16.00;85.10
62126;BME280;48112;53.282;6.150;2022-08-19T05:30:34;101416.47;;;16.07;85.01
62126;BME280;48112;53.282;6.150;2022-08-19T05:31:48;101423.53;;;16.11;85.21
62126;BME280;48112;53.282;6.150;2022-08-19T05:32:50;101425.16;;;16.16;84.75
62126;BME280;48112;53.282;6.150;2022-08-19T05:33:55;101429.13;;;16.18;84.71
62126;BME280;48112;53.282;6.150;2022-08-19T05:34:57;101427.22;;;16.22;84.41
62126;BME280;48112;53.282;6.150;2022-08-19T05:36:01;101430.09;;;16.29;84.83
62126;BME280;48112;53.282;6.150;2022-08-19T05:37:04;101423.91;;;16.32;84.38
62126;BME280;48112;53.282;6.150;2022-08-19T05:38:09;101430.91;;;16.33;84.43
62126;BME280;48112;53.282;6.150;2022-08-19T05:39:15;101429.81;;;16.38;84.49
62126;BME280;48112;53.282;6.150;2022-08-19T05:40:18;101424.44;;;16.41;84.30